createdAt,value
2019-03-23T00:00:02.186Z,99.57
2019-03-23T00:03:10.932Z,99.09
2019-03-23T00:06:30.221Z,98.93
2019-03-23T00:09:30.319Z,99.17
2019-03-23T00:12:38.930Z,99.07
2019-03-23T00:15:47.137Z,98.95
2019-03-23T00:18:55.532Z,99.31
2019-03-23T00:22:04.357Z,98.94
2019-03-23T00:25:12.651Z,98.57
2019-03-23T00:28:21.218Z,98.52
2019-03-23T00:31:29.472Z,98.53
2019-03-23T00:34:37.851Z,98.38
2019-03-23T00:37:46.756Z,97.94
2019-03-23T00:40:55.235Z,97.61
2019-03-23T00:44:04.135Z,97.67
2019-03-23T00:47:13.286Z,97.76
2019-03-23T00:50:21.487Z,97.71
2019-03-23T00:53:30.192Z,97.70
2019-03-23T00:56:38.410Z,96.39
2019-03-23T00:59:46.559Z,95.37
2019-03-23T01:02:55.177Z,95.60
2019-03-23T01:06:03.728Z,96.17
2019-03-23T01:09:12.239Z,96.46
2019-03-23T01:12:20.915Z,96.23
2019-03-23T01:15:29.249Z,95.38
2019-03-23T01:18:37.531Z,95.11
2019-03-23T01:21:46.048Z,95.12
2019-03-23T01:24:54.277Z,94.96
2019-03-23T01:28:02.563Z,95.21
2019-03-23T01:31:11.288Z,94.88
2019-03-23T01:34:20.033Z,94.96
2019-03-23T01:37:28.397Z,94.73
2019-03-23T01:40:37.026Z,94.53
2019-03-23T01:43:45.502Z,94.59
2019-03-23T01:46:53.741Z,94.57
2019-03-23T01:50:02.280Z,94.75
2019-03-23T01:53:10.704Z,95.06
2019-03-23T01:56:18.979Z,94.55
2019-03-23T01:59:27.193Z,94.38
2019-03-23T02:02:35.436Z,94.46
2019-03-23T02:05:43.716Z,94.25
2019-03-23T02:08:51.920Z,94.53
2019-03-23T02:12:00.036Z,94.81
2019-03-23T02:15:09.881Z,94.76
2019-03-23T02:18:18.094Z,94.59
2019-03-23T02:21:26.541Z,95.16
2019-03-23T02:24:35.006Z,94.96
2019-03-23T02:27:43.535Z,94.99
2019-03-23T02:30:51.752Z,95.12
2019-03-23T02:33:59.934Z,94.73
2019-03-23T02:37:08.394Z,93.98
2019-03-23T02:40:16.783Z,94.45
2019-03-23T02:43:25.233Z,94.82
2019-03-23T02:46:33.418Z,95.21
2019-03-23T02:49:41.382Z,95.37
2019-03-23T02:52:49.566Z,95.63
2019-03-23T02:55:57.658Z,96.43
2019-03-23T02:59:05.969Z,96.72
2019-03-23T03:02:14.390Z,96.72
2019-03-23T03:05:22.670Z,96.42
2019-03-23T03:08:31.014Z,96.14
2019-03-23T03:11:39.061Z,96.07
2019-03-23T03:14:47.024Z,95.48
2019-03-23T03:17:55.242Z,95.87
2019-03-23T03:21:03.890Z,96.29
2019-03-23T03:24:12.303Z,96.41
2019-03-23T03:27:20.613Z,96.71
2019-03-23T03:30:29.092Z,97.27
2019-03-23T03:33:37.158Z,97.81
2019-03-23T03:36:45.235Z,97.88
2019-03-23T03:39:53.394Z,97.93
2019-03-23T03:43:01.900Z,98.10
2019-03-23T03:46:09.968Z,98.15
2019-03-23T03:49:18.187Z,96.97
2019-03-23T03:52:26.251Z,95.58
2019-03-23T03:55:34.399Z,95.90
2019-03-23T03:58:42.484Z,96.24
2019-03-23T04:01:50.552Z,96.89
2019-03-23T04:04:58.925Z,96.62
2019-03-23T04:08:11.699Z,97.02
2019-03-23T04:11:16.984Z,97.42
2019-03-23T04:14:24.951Z,98.25
2019-03-23T04:17:33.157Z,100.00
2019-03-23T04:20:41.444Z,100.00
2019-03-23T04:23:49.601Z,100.00
2019-03-23T04:26:57.703Z,100.00
2019-03-23T04:30:07.816Z,100.00
2019-03-23T04:33:16.464Z,100.00
2019-03-23T04:36:24.688Z,100.00
2019-03-23T04:39:32.985Z,100.00
2019-03-23T04:42:41.188Z,100.00
2019-03-23T04:45:49.354Z,100.00
2019-03-23T04:48:58.041Z,100.00
2019-03-23T04:52:06.216Z,100.00
2019-03-23T04:55:14.852Z,100.00
2019-03-23T04:58:22.928Z,100.00
2019-03-23T05:01:31.204Z,100.00
2019-03-23T05:04:39.279Z,100.00
2019-03-23T05:07:47.251Z,100.00
2019-03-23T05:10:57.049Z,100.00
2019-03-23T05:14:05.387Z,100.00
2019-03-23T05:17:13.493Z,100.00
2019-03-23T05:20:27.978Z,100.00
2019-03-23T05:23:38.268Z,100.00
2019-03-23T05:26:46.491Z,100.00
2019-03-23T05:29:54.517Z,100.00
2019-03-23T05:33:02.840Z,100.00
2019-03-23T05:36:12.499Z,100.00
2019-03-23T05:39:21.343Z,100.00
2019-03-23T05:42:29.596Z,99.65
2019-03-23T05:45:37.848Z,99.10
2019-03-23T05:48:46.090Z,98.58
2019-03-23T05:51:54.662Z,98.65
2019-03-23T05:55:03.155Z,98.18
2019-03-23T05:58:11.724Z,96.89
2019-03-23T06:01:19.690Z,96.04
2019-03-23T06:04:27.663Z,95.80
2019-03-23T06:07:35.901Z,95.13
2019-03-23T06:10:43.876Z,94.20
2019-03-23T06:13:52.210Z,93.27
2019-03-23T06:17:00.911Z,90.88
2019-03-23T06:20:09.415Z,87.81
2019-03-23T06:23:17.670Z,86.03
2019-03-23T06:26:26.181Z,83.39
2019-03-23T06:29:34.970Z,81.24
2019-03-23T06:32:43.176Z,78.84
2019-03-23T06:35:51.510Z,77.74
2019-03-23T06:39:05.417Z,75.94
2019-03-23T06:42:10.804Z,73.29
2019-03-23T06:45:19.338Z,71.76
2019-03-23T06:48:27.411Z,69.76
2019-03-23T06:51:36.363Z,69.65
2019-03-23T06:54:44.836Z,67.50
2019-03-23T06:57:53.096Z,65.15
2019-03-23T07:01:01.282Z,61.20
2019-03-23T07:04:09.477Z,59.61
2019-03-23T07:07:17.797Z,57.92
2019-03-23T07:10:26.009Z,57.04
2019-03-23T07:13:34.148Z,53.60
2019-03-23T07:16:42.662Z,56.05
2019-03-23T07:19:50.890Z,55.32
2019-03-23T07:26:08.066Z,52.25
2019-03-23T07:29:17.075Z,50.73
2019-03-23T07:32:25.853Z,51.81
2019-03-23T07:35:34.388Z,51.28
2019-03-23T07:38:43.370Z,50.13
2019-03-23T07:41:51.817Z,51.48
2019-03-23T07:45:00.362Z,51.95
2019-03-23T07:48:09.566Z,52.55
2019-03-23T07:51:17.880Z,50.68
2019-03-23T07:54:26.771Z,56.83
2019-03-23T07:57:36.398Z,52.80
2019-03-23T08:00:44.818Z,60.00
2019-03-23T08:03:53.877Z,61.02
2019-03-23T08:07:02.554Z,61.44
2019-03-23T08:10:23.009Z,62.49
2019-03-23T08:13:31.647Z,58.69
2019-03-23T08:16:40.114Z,55.83
2019-03-23T08:19:48.469Z,54.49
2019-03-23T08:22:58.061Z,55.81
2019-03-23T08:26:06.627Z,55.58
2019-03-23T08:29:14.820Z,53.46
2019-03-23T08:32:22.928Z,50.64
2019-03-23T08:35:31.004Z,52.42
2019-03-23T08:38:38.980Z,51.99
2019-03-23T08:41:47.991Z,54.05
2019-03-23T08:44:56.519Z,50.69
2019-03-23T08:48:05.134Z,47.31
2019-03-23T08:51:13.531Z,47.60
2019-03-23T08:54:22.662Z,47.21
2019-03-23T08:57:31.270Z,47.21
2019-03-23T09:00:40.032Z,48.50
2019-03-23T09:03:52.300Z,48.98
2019-03-23T09:06:57.894Z,51.30
2019-03-23T09:10:07.150Z,49.13
2019-03-23T09:13:15.728Z,48.78
2019-03-23T09:16:23.948Z,48.81
2019-03-23T09:19:32.908Z,49.23
2019-03-23T09:22:41.763Z,50.01
2019-03-23T09:25:50.547Z,48.21
2019-03-23T09:28:59.067Z,48.85
2019-03-23T09:32:07.583Z,47.13
2019-03-23T09:35:15.722Z,47.08
2019-03-23T09:38:25.045Z,45.28
2019-03-23T09:41:33.552Z,47.08
2019-03-23T09:44:41.868Z,46.31
2019-03-23T09:47:50.521Z,46.70
2019-03-23T09:50:59.127Z,45.56
2019-03-23T09:54:08.533Z,45.07
2019-03-23T09:57:17.401Z,45.97
2019-03-23T10:00:26.328Z,45.59
2019-03-23T10:03:34.630Z,45.33
2019-03-23T10:06:43.759Z,44.70
2019-03-23T10:09:53.699Z,45.18
2019-03-23T10:13:02.244Z,45.68
2019-03-23T10:16:10.296Z,45.22
2019-03-23T10:19:20.335Z,45.45
2019-03-23T10:22:28.429Z,43.75
2019-03-23T10:25:37.092Z,45.28
2019-03-23T10:28:45.622Z,44.34
2019-03-23T10:31:55.796Z,43.32
2019-03-23T10:35:06.154Z,43.76
2019-03-23T10:38:14.463Z,44.16
2019-03-23T10:41:24.231Z,43.42
2019-03-23T10:44:33.604Z,44.15
2019-03-23T10:47:42.200Z,43.64
2019-03-23T10:50:50.828Z,43.71
2019-03-23T10:54:04.036Z,43.98
2019-03-23T10:57:13.245Z,41.89
2019-03-23T11:00:22.139Z,42.58
2019-03-23T11:03:31.766Z,45.70
2019-03-23T11:06:40.259Z,42.49
2019-03-23T11:09:48.830Z,41.53
2019-03-23T11:12:57.440Z,40.99
2019-03-23T11:16:05.847Z,42.92
2019-03-23T11:19:14.476Z,41.25
2019-03-23T11:22:22.623Z,43.61
2019-03-23T11:25:30.980Z,42.41
2019-03-23T11:28:39.646Z,42.54
2019-03-23T11:31:47.922Z,40.33
2019-03-23T11:34:56.577Z,41.25
2019-03-23T11:38:05.126Z,40.89
2019-03-23T11:41:13.530Z,40.98
2019-03-23T11:44:22.171Z,41.41
2019-03-23T11:47:31.128Z,42.33
2019-03-23T11:50:39.987Z,41.97
2019-03-23T11:53:48.694Z,42.73
2019-03-23T11:56:57.838Z,43.99
2019-03-23T12:00:10.073Z,43.90
2019-03-23T12:03:18.946Z,42.79
2019-03-23T12:06:27.681Z,41.58
2019-03-23T12:09:36.321Z,41.24
2019-03-23T12:12:44.557Z,42.14
2019-03-23T12:15:53.066Z,41.02
2019-03-23T12:19:01.616Z,41.72
2019-03-23T12:22:10.392Z,42.09
2019-03-23T12:25:18.657Z,41.72
2019-03-23T12:28:27.168Z,39.72
2019-03-23T12:31:35.761Z,42.24
2019-03-23T12:34:44.152Z,40.30
2019-03-23T12:37:58.640Z,40.77
2019-03-23T12:41:18.487Z,39.43
2019-03-23T12:44:18.223Z,40.26
2019-03-23T12:47:27.250Z,40.11
2019-03-23T12:50:36.176Z,40.06
2019-03-23T12:53:44.876Z,39.06
2019-03-23T12:56:54.217Z,42.14
2019-03-23T13:00:03.704Z,41.80
2019-03-23T13:03:11.959Z,40.53
2019-03-23T13:06:20.116Z,40.75
2019-03-23T13:09:28.727Z,43.48
2019-03-23T13:12:37.984Z,40.92
2019-03-23T13:15:46.393Z,40.13
2019-03-23T13:18:55.173Z,42.35
2019-03-23T13:22:03.997Z,41.20
2019-03-23T13:25:12.296Z,44.75
2019-03-23T13:28:20.971Z,42.41
2019-03-23T13:31:29.540Z,40.04
2019-03-23T13:34:37.896Z,40.64
2019-03-23T13:37:47.609Z,41.59
2019-03-23T13:40:56.603Z,41.21
2019-03-23T13:44:05.841Z,39.77
2019-03-23T13:47:17.235Z,40.22
2019-03-23T13:50:29.599Z,40.45
2019-03-23T13:53:38.126Z,39.99
2019-03-23T13:56:46.594Z,41.03
2019-03-23T13:59:55.443Z,39.97
2019-03-23T14:03:04.139Z,41.17
2019-03-23T14:06:13.004Z,42.93
2019-03-23T14:09:21.642Z,39.74
2019-03-23T14:12:30.421Z,40.13
2019-03-23T14:15:38.763Z,40.04
2019-03-23T14:18:47.562Z,39.89
2019-03-23T14:21:57.008Z,39.47
2019-03-23T14:25:06.637Z,39.11
2019-03-23T14:28:15.020Z,41.46
2019-03-23T14:31:24.570Z,41.64
2019-03-23T14:34:32.933Z,41.16
2019-03-23T14:37:41.241Z,41.54
2019-03-23T14:40:49.398Z,40.99
2019-03-23T14:43:57.936Z,41.17
2019-03-23T14:47:06.429Z,43.91
2019-03-23T14:50:15.323Z,43.60
2019-03-23T14:53:24.524Z,43.16
2019-03-23T14:56:33.320Z,43.08
2019-03-23T14:59:41.715Z,42.80
2019-03-23T15:02:50.340Z,43.61
2019-03-23T15:05:58.573Z,42.43
2019-03-23T15:09:07.880Z,42.32
2019-03-23T15:12:16.948Z,42.12
2019-03-23T15:15:25.363Z,41.92
2019-03-23T15:18:33.944Z,42.15
2019-03-23T15:21:42.427Z,43.61
2019-03-23T15:24:50.585Z,42.32
2019-03-23T15:27:58.698Z,42.69
2019-03-23T15:31:10.434Z,45.41
2019-03-23T15:34:19.337Z,44.29
2019-03-23T15:37:27.431Z,45.21
2019-03-23T15:40:36.401Z,44.09
2019-03-23T15:43:44.899Z,43.83
2019-03-23T15:46:53.341Z,44.26
2019-03-23T15:50:01.588Z,43.71
2019-03-23T15:53:09.839Z,45.31
2019-03-23T15:56:17.858Z,44.71
2019-03-23T15:59:26.287Z,44.84
2019-03-23T16:02:34.580Z,46.61
2019-03-23T16:05:42.867Z,47.39
2019-03-23T16:08:51.026Z,45.37
2019-03-23T16:11:59.980Z,47.31
2019-03-23T16:15:09.873Z,47.08
2019-03-23T16:18:18.095Z,47.73
2019-03-23T16:21:26.610Z,48.19
2019-03-23T16:24:34.849Z,48.20
2019-03-23T16:27:43.343Z,48.28
2019-03-23T16:30:51.532Z,48.61
2019-03-23T16:34:00.193Z,49.00
2019-03-23T16:37:08.903Z,49.24
2019-03-23T16:40:17.557Z,49.57
2019-03-23T16:43:26.119Z,50.34
2019-03-23T16:46:34.485Z,50.14
2019-03-23T16:49:42.851Z,50.36
2019-03-23T16:52:51.109Z,50.59
2019-03-23T16:55:59.661Z,50.86
2019-03-23T16:59:08.443Z,51.00
2019-03-23T17:02:16.634Z,51.25
2019-03-23T17:05:25.226Z,51.77
2019-03-23T17:08:33.627Z,52.16
2019-03-23T17:11:41.816Z,52.89
2019-03-23T17:14:50.019Z,53.03
2019-03-23T17:17:58.035Z,53.36
2019-03-23T17:21:06.240Z,54.31
2019-03-23T17:24:14.450Z,55.27
2019-03-23T17:27:22.777Z,56.32
2019-03-23T17:30:31.491Z,57.48
2019-03-23T17:33:39.944Z,58.71
2019-03-23T17:36:48.161Z,59.12
2019-03-23T17:39:56.349Z,59.79
2019-03-23T17:43:06.226Z,60.46
2019-03-23T17:46:14.407Z,60.92
2019-03-23T17:49:22.716Z,61.64
2019-03-23T17:52:31.660Z,62.04
2019-03-23T17:55:40.300Z,62.73
2019-03-23T17:58:49.420Z,63.81
2019-03-23T18:01:58.653Z,64.70
2019-03-23T18:05:07.924Z,65.46
2019-03-23T18:08:16.604Z,67.31
2019-03-23T18:11:25.141Z,68.79
2019-03-23T18:14:33.570Z,70.05
2019-03-23T18:17:41.910Z,70.90
2019-03-23T18:20:50.168Z,71.84
2019-03-23T18:23:58.702Z,72.61
2019-03-23T18:27:06.880Z,73.28
2019-03-23T18:30:38.926Z,73.85
2019-03-23T18:33:47.430Z,74.57
2019-03-23T18:36:57.054Z,75.08
2019-03-23T18:40:08.175Z,75.04
2019-03-23T18:43:26.704Z,75.50
2019-03-23T18:46:26.624Z,77.23
2019-03-23T18:49:35.234Z,78.06
2019-03-23T18:52:43.759Z,78.17
2019-03-23T18:55:52.366Z,78.71
2019-03-23T18:59:01.837Z,77.76
2019-03-23T19:02:10.534Z,77.99
2019-03-23T19:05:19.256Z,78.15
2019-03-23T19:08:27.979Z,78.53
2019-03-23T19:11:36.416Z,79.04
2019-03-23T19:14:45.014Z,79.99
2019-03-23T19:17:53.340Z,80.36
2019-03-23T19:21:02.429Z,81.16
2019-03-23T19:24:11.027Z,82.29
2019-03-23T19:27:19.581Z,82.35
2019-03-23T19:30:28.308Z,82.61
2019-03-23T19:33:36.629Z,82.33
2019-03-23T19:36:44.738Z,82.69
2019-03-23T19:39:53.531Z,83.44
2019-03-23T19:43:01.988Z,84.40
2019-03-23T19:46:10.840Z,84.69
2019-03-23T19:49:19.207Z,85.02
2019-03-23T19:52:27.597Z,85.24
2019-03-23T19:55:36.389Z,85.63
2019-03-23T19:58:45.411Z,86.30
2019-03-23T20:01:53.888Z,86.89
2019-03-23T20:05:03.071Z,86.90
2019-03-23T20:08:12.083Z,87.41
2019-03-23T20:11:20.773Z,87.59
2019-03-23T20:14:29.746Z,88.40
2019-03-23T20:17:38.981Z,90.44
2019-03-23T20:20:47.679Z,91.68
2019-03-23T20:23:56.636Z,93.40
2019-03-23T20:27:05.056Z,93.42
2019-03-23T20:30:16.305Z,92.09
2019-03-23T20:33:24.700Z,91.35
2019-03-23T20:36:32.951Z,91.47
2019-03-23T20:39:41.845Z,92.72
2019-03-23T20:42:50.613Z,92.15
2019-03-23T20:45:59.672Z,92.37
2019-03-23T20:49:08.003Z,91.83
2019-03-23T20:52:16.761Z,92.70
2019-03-23T20:55:30.130Z,92.28
2019-03-23T20:58:38.699Z,91.98
2019-03-23T21:01:47.639Z,92.15
2019-03-23T21:04:56.192Z,92.41
2019-03-23T21:08:05.171Z,92.83
2019-03-23T21:11:13.858Z,93.20
2019-03-23T21:14:22.495Z,93.31
2019-03-23T21:17:30.957Z,93.27
2019-03-23T21:20:39.372Z,93.41
2019-03-23T21:23:48.250Z,93.87
2019-03-23T21:26:56.812Z,93.79
2019-03-23T21:30:08.911Z,94.02
2019-03-23T21:33:17.539Z,94.20
2019-03-23T21:36:26.902Z,94.16
2019-03-23T21:39:35.048Z,94.45
2019-03-23T21:42:43.373Z,94.11
2019-03-23T21:45:51.863Z,93.91
2019-03-23T21:49:03.050Z,93.75
2019-03-23T21:52:12.149Z,93.58
2019-03-23T21:55:20.523Z,93.55
2019-03-23T21:58:29.218Z,93.49
2019-03-23T22:01:37.597Z,93.73
2019-03-23T22:04:46.267Z,93.50
2019-03-23T22:07:55.085Z,93.11
2019-03-23T22:11:03.700Z,92.95
2019-03-23T22:14:12.027Z,92.99
2019-03-23T22:17:20.330Z,93.81
2019-03-23T22:20:31.756Z,93.70
2019-03-23T22:23:41.956Z,94.30
2019-03-23T22:26:50.887Z,94.14
2019-03-23T22:29:59.342Z,93.89
2019-03-23T22:33:10.817Z,93.88
2019-03-23T22:36:19.140Z,93.24
2019-03-23T22:39:27.668Z,93.54
2019-03-23T22:42:36.608Z,93.59
2019-03-23T22:45:45.399Z,94.04
2019-03-23T22:48:56.003Z,94.37
2019-03-23T22:52:05.003Z,94.64
2019-03-23T22:55:13.217Z,94.88
2019-03-23T22:58:21.798Z,94.76
2019-03-23T23:01:30.111Z,94.70
2019-03-23T23:04:38.679Z,94.90
2019-03-23T23:07:47.165Z,94.98
2019-03-23T23:10:56.190Z,95.07
2019-03-23T23:14:04.898Z,94.93
2019-03-23T23:17:13.460Z,94.69
2019-03-23T23:20:21.956Z,95.01
2019-03-23T23:23:30.792Z,95.65
2019-03-23T23:26:39.147Z,95.43
2019-03-23T23:29:47.547Z,95.50
2019-03-23T23:32:56.088Z,95.92
2019-03-23T23:36:04.801Z,95.90
2019-03-23T23:39:13.140Z,96.18
2019-03-23T23:42:21.391Z,96.54
2019-03-23T23:45:29.614Z,96.26
2019-03-23T23:48:37.754Z,95.59
2019-03-23T23:51:50.069Z,95.08
2019-03-23T23:54:56.145Z,94.65
2019-03-23T23:58:05.167Z,94.86
